createdAt,value
2017-01-14T00:00:59.060Z,603.41
2017-01-14T00:01:59.055Z,603.51
2017-01-14T00:02:59.057Z,603.53
2017-01-14T00:03:59.070Z,603.94
2017-01-14T00:04:59.057Z,603.42
2017-01-14T00:05:59.062Z,602.75
2017-01-14T00:06:59.062Z,602.35
2017-01-14T00:07:59.062Z,602.8
2017-01-14T00:08:59.081Z,602.46
2017-01-14T00:09:59.063Z,601.98
2017-01-14T00:10:59.071Z,602.25
2017-01-14T00:11:59.075Z,602.43
2017-01-14T00:12:59.067Z,602.44
2017-01-14T00:13:59.266Z,602.58
2017-01-14T00:14:59.066Z,602.17
2017-01-14T00:15:59.062Z,603.48
2017-01-14T00:16:59.062Z,603.9
2017-01-14T00:17:59.064Z,604.45
2017-01-14T00:18:59.063Z,604.62
2017-01-14T00:19:59.078Z,606.04
2017-01-14T00:20:59.081Z,605.58
2017-01-14T00:21:59.241Z,605.76
2017-01-14T00:22:59.268Z,605.95
2017-01-14T00:23:59.081Z,606.4
2017-01-14T00:24:59.069Z,605.96
2017-01-14T00:25:59.076Z,606.14
2017-01-14T00:26:59.072Z,606.55
2017-01-14T00:27:59.067Z,606.64
2017-01-14T00:28:59.078Z,605.82
2017-01-14T00:29:59.066Z,606.72
2017-01-14T00:30:59.078Z,606.61
2017-01-14T00:31:59.076Z,606.04
2017-01-14T00:32:59.171Z,606.02
2017-01-14T00:33:59.199Z,606.34
2017-01-14T00:34:59.076Z,606.89
2017-01-14T00:35:59.091Z,606.62
2017-01-14T00:36:59.084Z,607.59
2017-01-14T00:37:59.156Z,606.72
2017-01-14T00:38:59.083Z,607.18
2017-01-14T00:39:59.076Z,606.53
2017-01-14T00:40:59.113Z,606.97
2017-01-14T00:41:59.089Z,607.5
2017-01-14T00:42:59.079Z,606.69
2017-01-14T00:43:59.081Z,606.58
2017-01-14T00:44:59.092Z,607.43
2017-01-14T00:45:59.097Z,607.59
2017-01-14T00:46:59.083Z,607.36
2017-01-14T00:47:59.082Z,607.02
2017-01-14T00:48:59.090Z,607.02
2017-01-14T00:49:59.079Z,606.98
2017-01-14T00:50:59.091Z,606.81
2017-01-14T00:51:59.092Z,606.55
2017-01-14T00:52:59.085Z,607.44
2017-01-14T00:53:59.142Z,606.84
2017-01-14T00:54:59.086Z,606.35
2017-01-14T00:55:59.098Z,606.72
2017-01-14T00:56:59.103Z,606.93
2017-01-14T00:57:59.091Z,606.06
2017-01-14T00:58:59.130Z,605.87
2017-01-14T00:59:59.105Z,605.08
2017-01-14T01:00:59.098Z,604.97
2017-01-14T01:01:59.087Z,605.02
2017-01-14T01:02:59.281Z,603.93
2017-01-14T01:03:59.103Z,602.79
2017-01-14T01:04:59.188Z,602.65
2017-01-14T01:05:59.106Z,601.66
2017-01-14T01:06:59.106Z,600.16
2017-01-14T01:07:59.103Z,600.19
2017-01-14T01:08:59.119Z,599.01
2017-01-14T01:09:59.105Z,597.97
2017-01-14T01:10:59.106Z,597.47
2017-01-14T01:11:59.097Z,596.85
2017-01-14T01:12:59.108Z,596.31
2017-01-14T01:13:59.111Z,595.92
2017-01-14T01:14:59.116Z,595.35
2017-01-14T01:15:59.109Z,595.67
2017-01-14T01:16:59.106Z,595.26
2017-01-14T01:17:59.106Z,594.85
2017-01-14T01:18:59.112Z,595
2017-01-14T01:19:59.114Z,594.07
2017-01-14T01:20:59.336Z,593.96
2017-01-14T01:21:59.115Z,593.22
2017-01-14T01:22:59.112Z,592.98
2017-01-14T01:23:59.118Z,592.44
2017-01-14T01:24:59.110Z,591.92
2017-01-14T01:25:59.119Z,591.36
2017-01-14T01:26:59.110Z,592.31
2017-01-14T01:27:59.106Z,592.6
2017-01-14T01:28:59.125Z,589.72
2017-01-14T01:29:59.125Z,593.85
2017-01-14T01:30:59.110Z,592.6
2017-01-14T01:31:59.118Z,594.25
2017-01-14T01:32:59.118Z,594.67
2017-01-14T01:33:59.113Z,594.46
2017-01-14T01:34:59.119Z,595.08
2017-01-14T01:35:59.116Z,595.35
2017-01-14T01:36:59.214Z,595.91
2017-01-14T01:37:59.122Z,595.33
2017-01-14T01:38:59.123Z,594.95
2017-01-14T01:39:59.219Z,594.26
2017-01-14T01:40:59.131Z,593.69
2017-01-14T01:41:59.123Z,593.32
2017-01-14T01:42:59.144Z,592.32
2017-01-14T01:43:59.182Z,592.92
2017-01-14T01:44:59.135Z,592.11
2017-01-14T01:45:59.139Z,591.82
2017-01-14T01:46:59.126Z,591.32
2017-01-14T01:47:59.163Z,590.85
2017-01-14T01:48:59.125Z,590.87
2017-01-14T01:49:59.119Z,590.29
2017-01-14T01:50:59.124Z,590.28
2017-01-14T01:51:59.134Z,589.65
2017-01-14T01:52:59.139Z,589.67
2017-01-14T01:53:59.139Z,589
2017-01-14T01:54:59.131Z,589.58
2017-01-14T01:55:59.207Z,588.31
2017-01-14T01:56:59.294Z,588.07
2017-01-14T01:57:59.135Z,586.58
2017-01-14T01:58:59.134Z,585.03
2017-01-14T01:59:59.126Z,586.02
2017-01-14T02:00:59.249Z,586.38
2017-01-14T02:01:59.173Z,585.92
2017-01-14T02:02:59.135Z,584.04
2017-01-14T02:03:59.138Z,584.17
2017-01-14T02:04:59.131Z,582.97
2017-01-14T02:05:59.202Z,581.43
2017-01-14T02:06:59.145Z,582.11
2017-01-14T02:07:59.137Z,579.58
2017-01-14T02:08:59.145Z,578.43
2017-01-14T02:09:59.138Z,575.87
2017-01-14T02:10:59.216Z,574.69
2017-01-14T02:11:59.149Z,572.82
2017-01-14T02:12:59.165Z,572.03
2017-01-14T02:13:59.151Z,570.38
2017-01-14T02:14:59.182Z,569.9
2017-01-14T02:15:59.145Z,568.17
2017-01-14T02:16:59.142Z,567.58
2017-01-14T02:17:59.148Z,566.11
2017-01-14T02:18:59.143Z,565.02
2017-01-14T02:19:59.145Z,564.35
2017-01-14T02:20:59.150Z,563.87
2017-01-14T02:21:59.203Z,562.37
2017-01-14T02:22:59.153Z,560.72
2017-01-14T02:23:59.154Z,558.84
2017-01-14T02:24:59.147Z,557.27
2017-01-14T02:25:59.156Z,555.36
2017-01-14T02:26:59.148Z,554.62
2017-01-14T02:27:59.156Z,554.18
2017-01-14T02:28:59.156Z,553.58
2017-01-14T02:29:59.178Z,552.78
2017-01-14T02:30:59.175Z,552.59
2017-01-14T02:31:59.164Z,552.39
2017-01-14T02:32:59.156Z,551.5
2017-01-14T02:33:59.206Z,550.17
2017-01-14T02:34:59.339Z,550.09
2017-01-14T02:35:59.167Z,549.17
2017-01-14T02:36:59.169Z,549.42
2017-01-14T02:37:59.207Z,549.38
2017-01-14T02:38:59.153Z,548.87
2017-01-14T02:39:59.163Z,548.91
2017-01-14T02:40:59.155Z,549.25
2017-01-14T02:41:59.159Z,549.54
2017-01-14T02:42:59.161Z,549.14
2017-01-14T02:43:59.166Z,549.61
2017-01-14T02:44:59.262Z,548.57
2017-01-14T02:45:59.298Z,546.81
2017-01-14T02:46:59.164Z,546.76
2017-01-14T02:47:59.158Z,546.73
2017-01-14T02:48:59.190Z,546.52
2017-01-14T02:49:59.164Z,546.62
2017-01-14T02:51:01.670Z,545.95
2017-01-14T02:51:59.235Z,547.33
2017-01-14T02:53:01.703Z,548.26
2017-01-14T02:53:59.172Z,547.72
2017-01-14T02:54:59.173Z,548.99
2017-01-14T02:55:59.170Z,548.06
2017-01-14T02:56:59.169Z,548.27
2017-01-14T02:57:59.176Z,547.68
2017-01-14T02:58:59.174Z,548.24
2017-01-14T02:59:59.165Z,547.67
2017-01-14T03:00:59.334Z,547.79
2017-01-14T03:01:59.179Z,547.41
2017-01-14T03:02:59.294Z,547.76
2017-01-14T03:03:59.206Z,547.05
2017-01-14T03:04:59.182Z,547.03
2017-01-14T03:05:59.186Z,546.51
2017-01-14T03:06:59.190Z,546.42
2017-01-14T03:07:59.182Z,547.46
2017-01-14T03:08:59.180Z,548.15
2017-01-14T03:09:59.311Z,547.89
2017-01-14T03:10:59.178Z,548.33
2017-01-14T03:11:59.187Z,548.84
2017-01-14T03:12:59.181Z,548.91
2017-01-14T03:13:59.188Z,548.89
2017-01-14T03:14:59.184Z,548.68
2017-01-14T03:15:59.296Z,548.94
2017-01-14T03:16:59.194Z,548.34
2017-01-14T03:17:59.191Z,547.41
2017-01-14T03:18:59.191Z,546.11
2017-01-14T03:19:59.191Z,545.55
2017-01-14T03:20:59.194Z,544.94
2017-01-14T03:21:59.194Z,543.76
2017-01-14T03:22:59.187Z,542.2
2017-01-14T03:23:59.229Z,541.54
2017-01-14T03:24:59.193Z,540.57
2017-01-14T03:25:59.191Z,538.72
2017-01-14T03:26:59.207Z,538.21
2017-01-14T03:27:59.192Z,537.03
2017-01-14T03:28:59.196Z,535.58
2017-01-14T03:29:59.190Z,534.21
2017-01-14T03:30:59.194Z,533.5
2017-01-14T03:31:59.206Z,532.31
2017-01-14T03:32:59.199Z,531.1
2017-01-14T03:33:59.201Z,530.4
2017-01-14T03:34:59.195Z,529.03
2017-01-14T03:35:59.270Z,528.03
2017-01-14T03:36:59.193Z,525.47
2017-01-14T03:37:59.207Z,524.2
2017-01-14T03:38:59.220Z,522.95
2017-01-14T03:39:59.201Z,520.73
2017-01-14T03:40:59.202Z,518.53
2017-01-14T03:41:59.207Z,515.18
2017-01-14T03:42:59.207Z,514.36
2017-01-14T03:43:59.198Z,512.62
2017-01-14T03:44:59.214Z,511.33
2017-01-14T03:45:59.209Z,511.17
2017-01-14T03:46:59.225Z,511.03
2017-01-14T03:47:59.215Z,511.05
2017-01-14T03:48:59.201Z,510.75
2017-01-14T03:49:59.207Z,511.4
2017-01-14T03:50:59.209Z,512.34
2017-01-14T03:51:59.218Z,512.56
2017-01-14T03:52:59.206Z,513.45
2017-01-14T03:53:59.206Z,514.36
2017-01-14T03:54:59.220Z,515.36
2017-01-14T03:55:59.223Z,516.49
2017-01-14T03:56:59.215Z,517.88
2017-01-14T03:57:59.205Z,518.91
2017-01-14T03:58:59.209Z,521.07
2017-01-14T03:59:59.207Z,521.87
2017-01-14T04:00:59.215Z,522.22
2017-01-14T04:01:59.217Z,523.81
2017-01-14T04:02:59.214Z,523.75
2017-01-14T04:03:59.212Z,525.4
2017-01-14T04:04:59.215Z,525.69
2017-01-14T04:05:59.215Z,526.21
2017-01-14T04:06:59.215Z,526.7
2017-01-14T04:07:59.222Z,526.08
2017-01-14T04:08:59.236Z,526.7
2017-01-14T04:09:59.220Z,525.56
2017-01-14T04:10:59.225Z,525.9
2017-01-14T04:11:59.225Z,524.82
2017-01-14T04:12:59.217Z,523.41
2017-01-14T04:13:59.223Z,523.36
2017-01-14T04:14:59.230Z,521.64
2017-01-14T04:15:59.223Z,520.91
2017-01-14T04:16:59.220Z,520.29
2017-01-14T04:17:59.236Z,518.5
2017-01-14T04:18:59.237Z,518.35
2017-01-14T04:19:59.233Z,518.21
2017-01-14T04:20:59.278Z,517.21
2017-01-14T04:21:59.230Z,516.34
2017-01-14T04:22:59.230Z,516.15
2017-01-14T04:23:59.227Z,515.5
2017-01-14T04:24:59.236Z,515.77
2017-01-14T04:25:59.238Z,515.05
2017-01-14T04:26:59.231Z,514.11
2017-01-14T04:27:59.232Z,513.36
2017-01-14T04:28:59.226Z,512.57
2017-01-14T04:29:59.235Z,512.41
2017-01-14T04:30:59.238Z,512.67
2017-01-14T04:31:59.233Z,511.79
2017-01-14T04:32:59.241Z,511.48
2017-01-14T04:33:59.243Z,511.64
2017-01-14T04:34:59.235Z,511.62
2017-01-14T04:35:59.245Z,512.42
2017-01-14T04:36:59.239Z,512.34
2017-01-14T04:37:59.246Z,511.73
2017-01-14T04:38:59.240Z,511.09
2017-01-14T04:39:59.239Z,511.03
2017-01-14T04:40:59.236Z,509.83
2017-01-14T04:41:59.238Z,509.51
2017-01-14T04:42:59.246Z,508
2017-01-14T04:43:59.248Z,506.57
2017-01-14T04:44:59.254Z,505.17
2017-01-14T04:45:59.249Z,503.64
2017-01-14T04:46:59.254Z,501.76
2017-01-14T04:47:59.255Z,500.03
2017-01-14T04:48:59.246Z,499.03
2017-01-14T04:49:59.249Z,497.7
2017-01-14T04:50:59.243Z,496.19
2017-01-14T04:51:59.251Z,494.84
2017-01-14T04:52:59.252Z,493.05
2017-01-14T04:53:59.246Z,491.48
2017-01-14T04:54:59.252Z,489.89
2017-01-14T04:55:59.255Z,488.31
2017-01-14T04:56:59.248Z,487.33
2017-01-14T04:57:59.259Z,486
2017-01-14T04:58:59.262Z,483.93
2017-01-14T04:59:59.262Z,483.1
2017-01-14T05:00:59.254Z,482.97
2017-01-14T05:01:59.262Z,482.3
2017-01-14T05:02:59.267Z,481.64
2017-01-14T05:03:59.275Z,480.5
2017-01-14T05:04:59.267Z,480.33
2017-01-14T05:05:59.260Z,479.58
2017-01-14T05:06:59.264Z,478.65
2017-01-14T05:07:59.260Z,477.19
2017-01-14T05:08:59.264Z,476.5
2017-01-14T05:09:59.263Z,476.22
2017-01-14T05:10:59.276Z,475.59
2017-01-14T05:11:59.273Z,475.81
2017-01-14T05:12:59.262Z,475.01
2017-01-14T05:13:59.266Z,475.27
2017-01-14T05:14:59.260Z,476.53
2017-01-14T05:15:59.279Z,477.76
2017-01-14T05:16:59.269Z,477.96
2017-01-14T05:17:59.266Z,479.59
2017-01-14T05:18:59.279Z,480.89
2017-01-14T05:19:59.275Z,481.12
2017-01-14T05:20:59.274Z,482.12
2017-01-14T05:21:59.275Z,481.97
2017-01-14T05:22:59.271Z,480.74
2017-01-14T05:23:59.288Z,480.33
2017-01-14T05:24:59.273Z,478.22
2017-01-14T05:25:59.276Z,476.54
2017-01-14T05:26:59.279Z,474.87
2017-01-14T05:27:59.277Z,473.11
2017-01-14T05:28:59.273Z,471.3
2017-01-14T05:29:59.274Z,469.65
2017-01-14T05:30:59.276Z,466.96
2017-01-14T05:31:59.274Z,465.77
2017-01-14T05:32:59.273Z,463.78
2017-01-14T05:33:59.276Z,462.94
2017-01-14T05:34:59.277Z,461.35
2017-01-14T05:35:59.281Z,459.71
2017-01-14T05:36:59.288Z,458.89
2017-01-14T05:37:59.285Z,457.86
2017-01-14T05:38:59.284Z,455.85
2017-01-14T05:39:59.283Z,455.5
2017-01-14T05:40:59.283Z,454.47
2017-01-14T05:41:59.280Z,453.24
2017-01-14T05:42:59.290Z,451.43
2017-01-14T05:43:59.296Z,450.42
2017-01-14T05:44:59.291Z,448.28
2017-01-14T05:45:59.285Z,447.12
2017-01-14T05:46:59.301Z,446.27
2017-01-14T05:47:59.296Z,444.9
2017-01-14T05:48:59.285Z,443.02
2017-01-14T05:49:59.295Z,442.43
2017-01-14T05:50:59.290Z,441.41
2017-01-14T05:51:59.290Z,441.68
2017-01-14T05:52:59.291Z,440.07
2017-01-14T05:53:59.295Z,438.95
2017-01-14T05:54:59.288Z,440.48
2017-01-14T05:55:59.289Z,439.46
2017-01-14T05:56:59.298Z,440.76
2017-01-14T05:57:59.301Z,440.58
2017-01-14T05:58:59.293Z,440.62
2017-01-14T05:59:59.307Z,440.88
2017-01-14T06:00:59.292Z,441.13
2017-01-14T06:01:59.294Z,438.8
2017-01-14T06:02:59.303Z,442.44
2017-01-14T06:03:59.287Z,443.43
2017-01-14T06:04:59.293Z,443.96
2017-01-14T06:05:59.300Z,446.3
2017-01-14T06:06:59.295Z,447.74
2017-01-14T06:07:59.311Z,448.77
2017-01-14T06:08:59.303Z,451.1
2017-01-14T06:09:59.307Z,453.89
2017-01-14T06:10:59.328Z,452.38
2017-01-14T06:11:59.310Z,457.42
2017-01-14T06:12:59.302Z,460.14
2017-01-14T06:13:59.320Z,462.01
2017-01-14T06:14:59.311Z,464.77
2017-01-14T06:15:59.301Z,466.44
2017-01-14T06:16:59.303Z,467.85
2017-01-14T06:17:59.312Z,469.22
2017-01-14T06:18:59.325Z,471.22
2017-01-14T06:19:59.306Z,472.6
2017-01-14T06:20:59.307Z,472.62
2017-01-14T06:21:59.312Z,473.5
2017-01-14T06:22:59.311Z,472.67
2017-01-14T06:23:59.327Z,472.06
2017-01-14T06:24:59.305Z,471.22
2017-01-14T06:25:59.306Z,469.15
2017-01-14T06:26:59.313Z,467.85
2017-01-14T06:27:59.314Z,466.48
2017-01-14T06:28:59.311Z,463.91
2017-01-14T06:29:59.318Z,461.55
2017-01-14T06:30:59.317Z,460.19
2017-01-14T06:31:59.312Z,458.74
2017-01-14T06:32:59.310Z,456.3
2017-01-14T06:33:59.322Z,455.52
2017-01-14T06:34:59.322Z,453.75
2017-01-14T06:35:59.323Z,452.25
2017-01-14T06:36:59.313Z,450.89
2017-01-14T06:37:59.327Z,449.38
2017-01-14T06:38:59.322Z,446.65
2017-01-14T06:39:59.322Z,445.24
2017-01-14T06:40:59.332Z,443.78
2017-01-14T06:41:59.333Z,442.18
2017-01-14T06:42:59.322Z,439.52
2017-01-14T06:43:59.319Z,437.14
2017-01-14T06:44:59.322Z,436.2
2017-01-14T06:45:59.330Z,434.79
2017-01-14T06:46:59.325Z,432.89
2017-01-14T06:47:59.330Z,431.34
2017-01-14T06:48:59.320Z,429.64
2017-01-14T06:49:59.327Z,427.72
2017-01-14T06:50:59.333Z,426.5
2017-01-14T06:51:59.333Z,424.1
2017-01-14T06:52:59.324Z,423.99
2017-01-14T06:53:59.341Z,420.75
2017-01-14T06:54:59.335Z,418.66
2017-01-14T06:55:59.335Z,418.24
2017-01-14T06:56:59.337Z,415.53
2017-01-14T06:57:59.330Z,411.02
2017-01-14T06:58:59.332Z,411.45
2017-01-14T06:59:59.342Z,409.77
2017-01-14T07:00:59.336Z,407.69
2017-01-14T07:01:59.335Z,407.11
2017-01-14T07:02:59.334Z,404.37
2017-01-14T07:03:59.338Z,402.86
2017-01-14T07:04:59.334Z,401.86
2017-01-14T07:05:59.335Z,400.45
2017-01-14T07:06:59.348Z,398.03
2017-01-14T07:07:59.354Z,396.58
2017-01-14T07:08:59.353Z,395.08
2017-01-14T07:09:59.339Z,392.96
2017-01-14T07:10:59.342Z,390.42
2017-01-14T07:11:59.367Z,390.54
2017-01-14T07:12:59.344Z,389.49
2017-01-14T07:13:59.353Z,387.76
2017-01-14T07:14:59.343Z,387.97
2017-01-14T07:15:59.344Z,387.36
2017-01-14T07:16:59.343Z,386.78
2017-01-14T07:17:59.341Z,385.51
2017-01-14T07:18:59.343Z,386.8
2017-01-14T07:19:59.351Z,386.11
2017-01-14T07:20:59.345Z,386.01
2017-01-14T07:21:59.361Z,385.83
2017-01-14T07:22:59.346Z,385.16
2017-01-14T07:23:59.350Z,386.34
2017-01-14T07:24:59.348Z,386.34
2017-01-14T07:25:59.351Z,385.87
2017-01-14T07:26:59.350Z,385.51
2017-01-14T07:27:59.354Z,385.11
2017-01-14T07:28:59.355Z,383.98
2017-01-14T07:29:59.351Z,384.5
2017-01-14T07:30:59.358Z,383.56
2017-01-14T07:31:59.363Z,382.76
2017-01-14T07:32:59.350Z,382.43
2017-01-14T07:33:59.356Z,382.01
2017-01-14T07:34:59.358Z,382.93
2017-01-14T07:35:59.352Z,383.1
2017-01-14T07:36:59.369Z,383.92
2017-01-14T07:37:59.377Z,384.61
2017-01-14T07:38:59.360Z,386.33
2017-01-14T07:39:59.366Z,388.53
2017-01-14T07:40:59.358Z,391.21
2017-01-14T07:41:59.358Z,394.17
2017-01-14T07:42:59.363Z,397.57
2017-01-14T07:43:59.368Z,400.87
2017-01-14T07:44:59.377Z,404.3
2017-01-14T07:45:59.365Z,406.68
2017-01-14T07:46:59.363Z,409.93
2017-01-14T07:47:59.362Z,411.81
2017-01-14T07:48:59.363Z,414.19
2017-01-14T07:49:59.370Z,416.83
2017-01-14T07:50:59.371Z,418.13
2017-01-14T07:51:59.368Z,419.8
2017-01-14T07:52:59.389Z,422.21
2017-01-14T07:53:59.365Z,424.26
2017-01-14T07:54:59.378Z,427.75
2017-01-14T07:55:59.378Z,430.05
2017-01-14T07:56:59.371Z,433.69
2017-01-14T07:57:59.369Z,437.46
2017-01-14T07:58:59.377Z,439.96
2017-01-14T07:59:59.375Z,442.73
2017-01-14T08:00:59.364Z,444.35
2017-01-14T08:01:59.378Z,445.28
2017-01-14T08:02:59.368Z,445.32
2017-01-14T08:03:59.380Z,445.14
2017-01-14T08:04:59.375Z,444.45
2017-01-14T08:05:59.401Z,444.08
2017-01-14T08:06:59.386Z,443.41
2017-01-14T08:07:59.375Z,442.93
2017-01-14T08:08:59.388Z,442.06
2017-01-14T08:09:59.380Z,440.34
2017-01-14T08:10:59.384Z,439.58
2017-01-14T08:11:59.383Z,439.4
2017-01-14T08:12:59.384Z,438.67
2017-01-14T08:13:59.384Z,438.19
2017-01-14T08:14:59.376Z,437.23
2017-01-14T08:15:59.418Z,437.65
2017-01-14T08:16:59.392Z,437.64
2017-01-14T08:17:59.377Z,437.57
2017-01-14T08:18:59.391Z,437.5
2017-01-14T08:19:59.389Z,437.76
2017-01-14T08:20:59.386Z,437.49
2017-01-14T08:21:59.382Z,437.97
2017-01-14T08:22:59.386Z,438.28
2017-01-14T08:23:59.382Z,439.35
2017-01-14T08:24:59.387Z,439.7
2017-01-14T08:25:59.391Z,440.44
2017-01-14T08:26:59.385Z,441.62
2017-01-14T08:27:59.423Z,441.63
2017-01-14T08:28:59.395Z,442.95
2017-01-14T08:29:59.388Z,443.83
2017-01-14T08:30:59.394Z,444.14
2017-01-14T08:31:59.395Z,444.68
2017-01-14T08:32:59.390Z,446.01
2017-01-14T08:33:59.396Z,445.92
2017-01-14T08:34:59.418Z,446.73
2017-01-14T08:35:59.618Z,447.83
2017-01-14T08:36:59.393Z,449.35
2017-01-14T08:37:59.402Z,449.41
2017-01-14T08:38:59.400Z,451.11
2017-01-14T08:39:59.400Z,452.82
2017-01-14T08:40:59.404Z,454.83
2017-01-14T08:41:59.410Z,455.75
2017-01-14T08:42:59.396Z,457.57
2017-01-14T08:43:59.434Z,460.06
2017-01-14T08:44:59.406Z,460.91
2017-01-14T08:45:59.403Z,462.58
2017-01-14T08:46:59.408Z,464.06
2017-01-14T08:47:59.410Z,465.98
2017-01-14T08:48:59.403Z,468.46
2017-01-14T08:49:59.416Z,470.09
2017-01-14T08:50:59.407Z,474.3
2017-01-14T08:51:59.408Z,477.1
2017-01-14T08:52:59.421Z,479.31
2017-01-14T08:53:59.412Z,482.87
2017-01-14T08:54:59.424Z,486.45
2017-01-14T08:55:59.407Z,491.36
2017-01-14T08:56:59.609Z,497.91
2017-01-14T08:57:59.425Z,503.5
2017-01-14T08:58:59.416Z,509.39
2017-01-14T08:59:59.413Z,516.99
2017-01-14T09:00:59.467Z,523.33
2017-01-14T09:01:59.424Z,531.09
2017-01-14T09:02:59.429Z,538.17
2017-01-14T09:03:59.415Z,542.67
2017-01-14T09:04:59.530Z,551.49
2017-01-14T09:05:59.427Z,556.85
2017-01-14T09:06:59.419Z,560.93
2017-01-14T09:07:59.658Z,565.59
2017-01-14T09:08:59.418Z,568.98
2017-01-14T09:09:59.413Z,573.82
2017-01-14T09:10:59.417Z,577.73
2017-01-14T09:11:59.427Z,581.2
2017-01-14T09:12:59.426Z,583.05
2017-01-14T09:13:59.430Z,584.41
2017-01-14T09:14:59.448Z,585.95
2017-01-14T09:15:59.429Z,588.17
2017-01-14T09:16:59.426Z,589.88
2017-01-14T09:17:59.430Z,591.32
2017-01-14T09:18:59.506Z,591.63
2017-01-14T09:19:59.434Z,592.56
2017-01-14T09:20:59.425Z,594.7
2017-01-14T09:22:00.161Z,596.3
2017-01-14T09:23:00.300Z,596.4
2017-01-14T09:24:00.052Z,597.35
2017-01-14T09:25:00.094Z,598.14
2017-01-14T09:26:00.311Z,598.12
2017-01-14T09:26:59.965Z,598.84
2017-01-14T09:28:00.340Z,599.95
2017-01-14T09:29:01.546Z,600.21
2017-01-14T09:29:59.441Z,599.42
2017-01-14T09:31:02.329Z,598.57
2017-01-14T09:32:02.447Z,597.71
2017-01-14T09:32:59.438Z,596.6
2017-01-14T09:33:59.453Z,594.85
2017-01-14T09:34:59.437Z,594.55
2017-01-14T09:35:59.441Z,593.52
2017-01-14T09:36:59.510Z,592.67
2017-01-14T09:37:59.438Z,591.25
2017-01-14T09:38:59.440Z,590.22
2017-01-14T09:39:59.469Z,588.59
2017-01-14T09:40:59.441Z,586.65
2017-01-14T09:41:59.448Z,585.19
2017-01-14T09:42:59.446Z,583.11
2017-01-14T09:43:59.450Z,581.81
2017-01-14T09:44:59.442Z,581.3
2017-01-14T09:45:59.452Z,580.49
2017-01-14T09:46:59.436Z,581.15
2017-01-14T09:47:59.541Z,580.91
2017-01-14T09:48:59.455Z,581.67
2017-01-14T09:49:59.443Z,582.24
2017-01-14T09:50:59.441Z,582.84
2017-01-14T09:51:59.679Z,582.46
2017-01-14T09:52:59.463Z,583.66
2017-01-14T09:53:59.449Z,584.2
2017-01-14T09:54:59.601Z,585.36
2017-01-14T09:55:59.448Z,586.66
2017-01-14T09:56:59.453Z,586.37
2017-01-14T09:57:59.454Z,586.64
2017-01-14T09:58:59.448Z,586.04
2017-01-14T10:00:02.098Z,585.44
2017-01-14T10:00:59.464Z,584.1
2017-01-14T10:02:01.831Z,582.21
2017-01-14T10:03:01.721Z,580.78
2017-01-14T10:04:03.722Z,577.3
2017-01-14T10:05:01.895Z,572.44
2017-01-14T10:06:01.872Z,567.87
2017-01-14T10:07:02.530Z,563.48
2017-01-14T10:08:01.768Z,559.47
2017-01-14T10:09:01.769Z,554.84
2017-01-14T10:10:02.483Z,551.27
2017-01-14T10:11:02.670Z,548.12
2017-01-14T10:12:02.775Z,544.55
2017-01-14T10:13:02.616Z,541.84
2017-01-14T10:14:02.114Z,538.47
2017-01-14T10:15:01.939Z,535.4
2017-01-14T10:16:01.894Z,531.94
2017-01-14T10:17:01.873Z,530.34
2017-01-14T10:18:01.922Z,529.73
2017-01-14T10:19:01.440Z,528.74
2017-01-14T10:20:00.996Z,527.32
2017-01-14T10:21:01.247Z,527.97
2017-01-14T10:21:59.479Z,527.35
2017-01-14T10:22:59.472Z,527.04
2017-01-14T10:23:59.587Z,526.27
2017-01-14T10:24:59.635Z,527.89
2017-01-14T10:25:59.475Z,527.99
2017-01-14T10:26:59.471Z,529.5
2017-01-14T10:27:59.564Z,529.25
2017-01-14T10:28:59.471Z,530.49
2017-01-14T10:29:59.475Z,531.63
2017-01-14T10:30:59.478Z,534.53
2017-01-14T10:31:59.474Z,538.21
2017-01-14T10:32:59.474Z,541.03
2017-01-14T10:33:59.518Z,542.77
2017-01-14T10:34:59.474Z,545.84
2017-01-14T10:35:59.480Z,548.99
2017-01-14T10:36:59.474Z,552.41
2017-01-14T10:37:59.474Z,554.64
2017-01-14T10:38:59.482Z,556.72
2017-01-14T10:39:59.488Z,557.48
2017-01-14T10:40:59.478Z,557.65
2017-01-14T10:41:59.475Z,558.04
2017-01-14T10:42:59.484Z,557.03
2017-01-14T10:43:59.493Z,558.03
2017-01-14T10:44:59.488Z,558.5
2017-01-14T10:45:59.491Z,560.1
2017-01-14T10:46:59.484Z,559.84
2017-01-14T10:47:59.484Z,561.54
2017-01-14T10:48:59.596Z,561.79
2017-01-14T10:49:59.488Z,561.56
2017-01-14T10:50:59.504Z,563.11
2017-01-14T10:51:59.508Z,563.12
2017-01-14T10:52:59.494Z,563.16
2017-01-14T10:53:59.509Z,562.94
2017-01-14T10:54:59.488Z,562.94
2017-01-14T10:55:59.501Z,564.47
2017-01-14T10:56:59.502Z,564.69
2017-01-14T10:57:59.500Z,565.87
2017-01-14T10:58:59.494Z,564.83
2017-01-14T10:59:59.497Z,565.24
2017-01-14T11:00:59.498Z,565.8
2017-01-14T11:01:59.638Z,565.97
2017-01-14T11:02:59.499Z,565.24
2017-01-14T11:03:59.497Z,564.91
2017-01-14T11:04:59.810Z,564.1
2017-01-14T11:05:59.532Z,564.15
2017-01-14T11:06:59.594Z,562.61
2017-01-14T11:07:59.504Z,562.77
2017-01-14T11:08:59.491Z,561.28
2017-01-14T11:09:59.533Z,561.05
2017-01-14T11:10:59.510Z,564.64
2017-01-14T11:11:59.728Z,570.61
2017-01-14T11:12:59.512Z,577.05
2017-01-14T11:13:59.520Z,581.96
2017-01-14T11:14:59.528Z,585.56
2017-01-14T11:15:59.512Z,588.21
2017-01-14T11:16:59.504Z,591.5
2017-01-14T11:17:59.510Z,596.52
2017-01-14T11:18:59.504Z,604.16
2017-01-14T11:19:59.509Z,611.07
2017-01-14T11:20:59.609Z,614.49
2017-01-14T11:21:59.506Z,617.02
2017-01-14T11:22:59.498Z,620.68
2017-01-14T11:23:59.503Z,624.21
2017-01-14T11:24:59.506Z,625.43
2017-01-14T11:25:59.518Z,626.12
2017-01-14T11:26:59.554Z,626.86
2017-01-14T11:27:59.580Z,626.9
2017-01-14T11:28:59.509Z,629.1
2017-01-14T11:29:59.515Z,630.92
2017-01-14T11:30:59.564Z,634
2017-01-14T11:31:59.527Z,634.34
2017-01-14T11:32:59.573Z,634.86
2017-01-14T11:33:59.517Z,636.86
2017-01-14T11:34:59.568Z,639.9
2017-01-14T11:35:59.519Z,641.13
2017-01-14T11:36:59.518Z,643.44
2017-01-14T11:37:59.528Z,645.36
2017-01-14T11:38:59.520Z,647.88
2017-01-14T11:39:59.521Z,650.32
2017-01-14T11:40:59.525Z,652.49
2017-01-14T11:41:59.579Z,651.75
2017-01-14T11:42:59.532Z,650.3
2017-01-14T11:43:59.521Z,649.04
2017-01-14T11:44:59.534Z,647.85
2017-01-14T11:45:59.523Z,645.51
2017-01-14T11:46:59.528Z,643.71
2017-01-14T11:47:59.549Z,640.86
2017-01-14T11:48:59.533Z,638.87
2017-01-14T11:49:59.530Z,638.15
2017-01-14T11:50:59.530Z,639.23
2017-01-14T11:51:59.520Z,642.03
2017-01-14T11:52:59.544Z,643.74
2017-01-14T11:53:59.548Z,650.13
2017-01-14T11:54:59.527Z,655.53
2017-01-14T11:55:59.533Z,659.39
2017-01-14T11:56:59.642Z,662.23
2017-01-14T11:57:59.686Z,664.26
2017-01-14T11:58:59.584Z,666.89
2017-01-14T11:59:59.541Z,669.81
2017-01-14T12:00:59.576Z,670.73
2017-01-14T12:01:59.558Z,672.01
2017-01-14T12:02:59.551Z,672.34
2017-01-14T12:03:59.539Z,670.73
2017-01-14T12:04:59.541Z,670.26
2017-01-14T12:05:59.562Z,668.82
2017-01-14T12:06:59.557Z,667.04
2017-01-14T12:07:59.597Z,666.15
2017-01-14T12:08:59.541Z,664.34
2017-01-14T12:09:59.628Z,662.67
2017-01-14T12:10:59.539Z,660.63
2017-01-14T12:11:59.541Z,657.95
2017-01-14T12:12:59.550Z,653.86
2017-01-14T12:13:59.545Z,650.93
2017-01-14T12:14:59.554Z,647.46
2017-01-14T12:15:59.558Z,644.32
2017-01-14T12:16:59.540Z,640.87
2017-01-14T12:17:59.553Z,638.39
2017-01-14T12:18:59.560Z,636.38
2017-01-14T12:19:59.560Z,633.71
2017-01-14T12:20:59.552Z,630.95
2017-01-14T12:21:59.567Z,630.09
2017-01-14T12:22:59.547Z,628.87
2017-01-14T12:23:59.549Z,629.4
2017-01-14T12:24:59.559Z,628.5
2017-01-14T12:25:59.558Z,628.3
2017-01-14T12:26:59.558Z,628.74
2017-01-14T12:27:59.559Z,629.76
2017-01-14T12:28:59.562Z,630.83
2017-01-14T12:29:59.594Z,633.61
2017-01-14T12:30:59.572Z,636.49
2017-01-14T12:31:59.565Z,638.6